Time;durP1;ratioP1;P1;durP2;ratioP2;P2;SDS_P1;SDS_P2;PMS_P1;PMS_P2;Temp;Humidity;BMP_temperature;BMP_pressure;BME280_temperature;BME280_humidity;BME280_pressure;Samples;Min_cycle;Max_cycle;Signal;HPM_P1;HPM_P2
2022/05/02 00:00:42;;;;;;;4.10;3.70;;;;;;;11.13;71.29;101744.34;4991410;28;20658;-52
2022/05/02 00:03:08;;;;;;;3.63;3.33;;;;;;;11.22;71.71;101741.81;4997402;28;20253;-54
2022/05/02 00:05:35;;;;;;;8.88;3.40;;;;;;;11.25;72.14;101738.34;4991961;28;20731;-53
2022/05/02 00:08:03;;;;;;;4.57;3.80;;;;;;;11.24;72.30;101736.59;5000849;28;20303;-52
2022/05/02 00:10:29;;;;;;;5.10;4.60;;;;;;;11.25;72.37;101734.84;4996743;28;20229;-54
2022/05/02 00:12:56;;;;;;;5.10;4.33;;;;;;;11.24;72.65;101736.59;4987940;28;20232;-53
2022/05/02 00:15:22;;;;;;;7.50;4.18;;;;;;;11.21;72.60;101739.19;4992175;28;20237;-53
2022/05/02 00:17:58;;;;;;;5.07;4.40;;;;;;;11.18;72.74;101736.50;4993204;28;20240;-53
2022/05/02 00:20:25;;;;;;;5.03;4.13;;;;;;;11.14;73.08;101734.72;5003392;28;20224;-53
2022/05/02 00:22:52;;;;;;;7.18;4.22;;;;;;;11.12;73.23;101731.16;5005028;28;20240;-52
2022/05/02 00:25:19;;;;;;;4.17;3.23;;;;;;;11.08;73.23;101734.63;4986699;28;20531;-52
2022/05/02 00:27:47;;;;;;;4.63;4.25;;;;;;;11.00;72.90;101724.03;4992722;28;20371;-52
2022/05/02 00:30:15;;;;;;;5.10;3.53;;;;;;;11.06;70.36;101721.47;4995731;28;20234;-52
2022/05/02 00:32:41;;;;;;;3.40;3.10;;;;;;;11.08;69.35;101725.00;4988649;28;20241;-53
2022/05/02 00:35:09;;;;;;;3.87;3.40;;;;;;;11.12;69.62;101724.16;4990534;28;20291;-53
2022/05/02 00:37:36;;;;;;;4.20;3.73;;;;;;;11.17;70.26;101734.75;4978597;28;20300;-52
2022/05/02 00:40:03;;;;;;;5.47;3.57;;;;;;;11.22;70.61;101722.53;4988055;28;20280;-53
2022/05/02 00:42:31;;;;;;;3.25;2.95;;;;;;;11.21;71.14;101715.53;4992878;28;20901;-54
2022/05/02 00:44:58;;;;;;;4.43;3.33;;;;;;;11.20;64.12;101713.78;4994137;28;20779;-52
2022/05/02 00:47:24;;;;;;;5.07;4.00;;;;;;;11.02;64.03;101713.53;4995601;28;20461;-53
2022/05/02 00:49:51;;;;;;;3.80;3.33;;;;;;;11.15;67.31;101712.81;5003983;28;20292;-53
2022/05/02 00:52:18;;;;;;;5.13;4.18;;;;;;;11.19;69.00;101719.88;4999697;28;20303;-54
2022/05/02 00:54:45;;;;;;;4.03;3.73;;;;;;;11.21;69.38;101721.66;4988917;28;20300;-52
2022/05/02 00:57:12;;;;;;;4.70;4.30;;;;;;;11.26;69.93;101719.09;4984758;28;20292;-53
2022/05/02 00:59:40;;;;;;;6.00;5.07;;;;;;;11.33;70.83;101720.03;4991801;28;20231;-53
2022/05/02 01:02:08;;;;;;;5.97;4.97;;;;;;;11.35;71.25;101719.19;5004902;28;20252;-53
2022/05/02 01:04:34;;;;;;;4.60;4.20;;;;;;;11.19;71.77;101722.50;4997351;28;20279;-53
2022/05/02 01:07:09;;;;;;;4.87;4.27;;;;;;;11.08;71.78;101721.50;4994349;28;20716;-53
2022/05/02 01:09:38;;;;;;;3.97;3.57;;;;;;;10.98;71.81;101721.34;4982308;28;20241;-53
2022/05/02 01:12:06;;;;;;;5.00;3.77;;;;;;;10.87;72.03;101712.44;4985399;28;20997;-53
2022/05/02 01:14:34;;;;;;;4.07;3.17;;;;;;;10.83;71.86;101712.41;4985879;28;20237;-53
2022/05/02 01:17:02;;;;;;;4.03;3.63;;;;;;;10.78;71.72;101709.72;4991739;28;20242;-53
2022/05/02 01:19:28;;;;;;;3.53;3.23;;;;;;;10.73;72.00;101711.38;4982815;28;20229;-52
2022/05/02 01:21:57;;;;;;;5.22;3.35;;;;;;;10.71;72.30;101713.13;4988299;28;20237;-52
2022/05/02 01:24:32;;;;;;;4.30;3.83;;;;;;;10.67;71.89;101712.19;4988474;28;20238;-53
2022/05/02 01:26:59;;;;;;;4.73;3.47;;;;;;;10.67;71.56;101714.81;4983126;28;20879;-53
2022/05/02 01:29:26;;;;;;;3.67;3.27;;;;;;;10.69;71.45;101712.22;4986503;28;20241;-52
2022/05/02 01:31:53;;;;;;;4.10;3.67;;;;;;;10.65;71.32;101702.53;4993504;28;20237;-53
2022/05/02 01:34:19;;;;;;;5.10;3.60;;;;;;;10.51;71.82;101703.19;4988263;28;20384;-53
2022/05/02 01:36:46;;;;;;;4.53;3.67;;;;;;;10.46;72.08;101704.88;4998121;28;20258;-53
2022/05/02 01:39:13;;;;;;;3.60;3.40;;;;;;;10.54;72.17;101698.88;5008229;28;20771;-53
2022/05/02 01:41:40;;;;;;;5.83;4.37;;;;;;;10.58;72.02;101705.94;5005574;28;22403;-53
2022/05/02 01:44:07;;;;;;;6.60;3.77;;;;;;;10.56;71.91;101705.88;5004722;28;20233;-53
2022/05/02 01:46:33;;;;;;;3.93;3.20;;;;;;;10.53;71.20;101708.50;4994843;28;20296;-53
2022/05/02 01:49:00;;;;;;;4.20;3.87;;;;;;;10.46;71.00;101699.63;4989873;28;20297;-53
2022/05/02 01:51:26;;;;;;;5.33;3.67;;;;;;;10.48;70.86;101702.28;4999349;28;20723;-53
2022/05/02 01:53:53;;;;;;;7.73;3.73;;;;;;;10.46;71.17;101702.25;5005892;28;20256;-52
2022/05/02 01:56:20;;;;;;;4.87;3.90;;;;;;;10.37;71.07;101696.88;5003907;28;20652;-54
2022/05/02 01:58:47;;;;;;;3.80;3.50;;;;;;;10.34;71.92;101690.69;5009354;28;20240;-53
2022/05/02 02:01:13;;;;;;;4.23;3.83;;;;;;;10.32;72.55;101692.38;4997236;28;20754;-54
2022/05/02 02:03:39;;;;;;;4.67;3.57;;;;;;;10.28;72.68;101691.47;4995142;28;20306;-54
2022/05/02 02:06:05;;;;;;;4.30;3.90;;;;;;;10.23;72.63;101695.72;4996153;28;20238;-53
2022/05/02 02:08:33;;;;;;;4.37;3.13;;;;;;;10.18;72.93;101694.75;4991734;28;20241;-54
2022/05/02 02:11:01;;;;;;;4.30;3.57;;;;;;;10.11;73.10;101699.06;5004386;28;20283;-53
2022/05/02 02:13:30;;;;;;;3.63;3.30;;;;;;;10.09;73.74;101694.63;4988762;28;20708;-53
2022/05/02 02:15:56;;;;;;;3.60;3.30;;;;;;;10.04;73.68;101687.56;4998623;28;20233;-52
2022/05/02 02:18:22;;;;;;;3.70;3.30;;;;;;;10.01;73.81;101687.53;4981009;28;20233;-53
2022/05/02 02:20:53;;;;;;;3.27;2.73;;;;;;;9.98;73.43;101684.84;4992374;28;20303;-52
2022/05/02 02:23:20;;;;;;;4.00;3.60;;;;;;;9.97;73.99;101684.84;4986839;28;20229;-53
2022/05/02 02:25:47;;;;;;;3.73;3.40;;;;;;;9.84;73.92;101685.47;4999448;28;20233;-53
2022/05/02 02:28:13;;;;;;;4.17;3.73;;;;;;;9.65;74.75;101677.28;5000794;28;20252;-53
2022/05/02 02:30:41;;;;;;;3.97;3.67;;;;;;;9.71;75.45;101681.75;4995410;28;20256;-54
2022/05/02 02:33:07;;;;;;;4.00;3.60;;;;;;;9.81;74.98;101673.19;5004440;28;20237;-53
2022/05/02 02:35:34;;;;;;;6.47;3.57;;;;;;;9.81;74.29;101673.19;5002513;28;20291;-52
2022/05/02 02:38:00;;;;;;;3.70;3.37;;;;;;;9.83;74.70;101681.97;4997093;28;20297;-54
2022/05/02 02:40:27;;;;;;;3.50;3.20;;;;;;;9.86;73.92;101674.13;5003588;28;20229;-53
2022/05/02 02:42:53;;;;;;;3.43;3.13;;;;;;;9.85;74.18;101675.00;5003456;28;20256;-53
2022/05/02 02:45:19;;;;;;;4.97;3.87;;;;;;;9.84;74.98;101683.72;4999879;28;20242;-53
2022/05/02 02:47:47;;;;;;;5.80;3.63;;;;;;;9.81;75.33;101673.19;4984746;28;20288;-53
2022/05/02 02:50:14;;;;;;;4.20;3.80;;;;;;;9.69;76.34;101673.84;5002650;28;20243;-52
2022/05/02 02:52:40;;;;;;;5.07;3.10;;;;;;;10.17;76.61;101664.13;4987278;28;21452;-53
2022/05/02 02:55:08;;;;;;;5.23;3.60;;;;;;;10.11;74.31;101669.28;4992199;28;20653;-53
2022/05/02 02:57:34;;;;;;;5.67;3.77;;;;;;;10.11;73.19;101669.28;4980793;28;20241;-52
2022/05/02 03:00:01;;;;;;;4.80;4.27;;;;;;;10.03;73.61;101663.91;4990523;28;20237;-52
2022/05/02 03:02:28;;;;;;;4.20;3.53;;;;;;;9.99;74.08;101668.22;4996904;28;20809;-53
2022/05/02 03:07:39;;;;;;;5.97;4.13;;;;;;;9.88;75.51;101669.81;4999320;28;20318;-53
2022/05/02 03:10:07;;;;;;;7.50;4.10;;;;;;;9.80;76.34;101666.19;4998297;28;20288;-54
2022/05/02 03:12:33;;;;;;;6.67;3.50;;;;;;;9.69;77.06;101667.75;4996232;28;20226;-51
2022/05/02 03:14:59;;;;;;;5.27;4.43;;;;;;;9.65;78.26;101668.50;5002948;28;20244;-52
2022/05/02 03:17:26;;;;;;;4.40;4.00;;;;;;;9.59;79.11;101669.31;5009315;28;20232;-53
2022/05/02 03:19:52;;;;;;;4.10;3.70;;;;;;;9.56;79.35;101670.13;5004982;28;20233;-53
2022/05/02 03:22:20;;;;;;;5.67;4.00;;;;;;;9.54;80.34;101669.19;4999981;28;20248;-53
2022/05/02 03:24:46;;;;;;;4.57;4.17;;;;;;;9.43;80.39;101669.88;4997162;28;20238;-53
2022/05/02 03:27:12;;;;;;;5.17;4.07;;;;;;;9.36;80.69;101663.63;4997084;28;20237;-52
2022/05/02 03:29:39;;;;;;;6.87;4.40;;;;;;;9.32;80.59;101673.16;4995663;28;20238;-53
2022/05/02 03:32:06;;;;;;;4.67;4.17;;;;;;;9.31;80.23;101673.16;5010636;28;20699;-53
2022/05/02 03:34:32;;;;;;;5.33;4.30;;;;;;;9.28;80.03;101670.47;5006207;28;20791;-53
2022/05/02 03:36:59;;;;;;;4.53;4.13;;;;;;;9.24;79.90;101671.25;5005477;28;20328;-54
2022/05/02 03:39:26;;;;;;;6.13;4.50;;;;;;;9.27;80.77;101668.72;5008926;28;20237;-53
2022/05/02 03:41:53;;;;;;;6.67;4.93;;;;;;;9.25;80.75;101662.53;5004576;28;20244;-54
2022/05/02 03:44:19;;;;;;;7.67;4.67;;;;;;;9.19;81.11;101660.66;5002002;28;20233;-53
2022/05/02 03:46:45;;;;;;;4.47;4.07;;;;;;;9.12;81.29;101661.41;5008833;28;20257;-55
2022/05/02 03:49:12;;;;;;;4.60;4.20;;;;;;;9.02;81.94;101656.84;5002927;28;20829;-53
2022/05/02 03:51:38;;;;;;;4.57;4.10;;;;;;;8.96;82.16;101646.25;5006577;28;20234;-53
2022/05/02 03:54:05;;;;;;;4.33;3.93;;;;;;;8.99;82.77;101649.81;5007649;28;20245;-53
2022/05/02 03:56:32;;;;;;;8.07;4.20;;;;;;;9.09;83.05;101643.03;4993684;28;20288;-52
2022/05/02 03:58:59;;;;;;;4.37;3.97;;;;;;;9.08;81.54;101649.97;4996658;28;20234;-55
2022/05/02 04:01:25;;;;;;;7.53;4.00;;;;;;;9.03;81.20;101653.38;4992192;28;20323;-52
2022/05/02 04:03:51;;;;;;;4.17;3.77;;;;;;;9.01;81.21;101652.44;5000721;28;20244;-57
2022/05/02 04:06:18;;;;;;;4.87;4.33;;;;;;;9.01;81.08;101650.72;4993310;28;20253;-52
2022/05/02 04:08:44;;;;;;;5.13;3.90;;;;;;;8.98;81.40;101653.28;5002606;28;20239;-52
2022/05/02 04:11:10;;;;;;;6.80;4.97;;;;;;;9.01;81.28;101661.19;4997846;28;20284;-52
2022/05/02 04:13:38;;;;;;;5.17;4.60;;;;;;;9.07;81.52;101656.09;4995027;28;20832;-52
2022/05/02 04:16:05;;;;;;;5.57;4.97;;;;;;;9.08;81.66;101657.84;4991064;28;20276;-53
2022/05/02 04:18:31;;;;;;;5.07;4.53;;;;;;;9.10;81.81;101655.28;4996118;28;20254;-53
2022/05/02 04:20:58;;;;;;;5.40;4.13;;;;;;;9.13;81.27;101662.31;4993317;28;20229;-52
2022/05/02 04:23:24;;;;;;;4.83;4.37;;;;;;;9.11;81.06;101664.00;5005583;28;20248;-53
2022/05/02 04:25:51;;;;;;;6.20;4.80;;;;;;;9.11;80.53;101659.66;5014119;28;20295;-53
2022/05/02 04:28:18;;;;;;;4.27;3.87;;;;;;;9.09;80.47;101669.22;5006134;28;20295;-53
2022/05/02 04:30:45;;;;;;;5.10;4.40;;;;;;;9.14;80.11;101672.81;5008011;28;20233;-53
2022/05/02 04:33:12;;;;;;;6.43;4.43;;;;;;;9.13;79.45;101675.41;4999118;28;20241;-53
2022/05/02 04:35:38;;;;;;;6.57;4.60;;;;;;;9.13;79.82;101678.03;4989409;28;20233;-52
2022/05/02 04:38:05;;;;;;;4.53;4.00;;;;;;;9.11;79.49;101677.97;4984965;28;20640;-53
2022/05/02 04:40:32;;;;;;;5.07;4.47;;;;;;;9.09;79.74;101677.09;4995263;28;21267;-53
2022/05/02 04:42:58;;;;;;;5.20;3.97;;;;;;;9.02;79.95;101683.03;4994553;28;20233;-53
2022/05/02 04:45:24;;;;;;;5.57;4.07;;;;;;;8.97;80.17;101677.69;4991016;28;20865;-53
2022/05/02 04:47:52;;;;;;;4.67;4.27;;;;;;;8.95;79.97;101682.03;4996892;28;20237;-53
2022/05/02 04:50:19;;;;;;;4.80;4.13;;;;;;;8.98;80.09;101689.06;5002544;28;20244;-52
2022/05/02 04:52:45;;;;;;;8.13;5.57;;;;;;;9.03;80.34;101679.56;5002851;28;20233;-52
2022/05/02 04:55:13;;;;;;;8.90;5.20;;;;;;;8.93;80.87;101694.22;4984147;28;20317;-53
2022/05/02 04:57:39;;;;;;;6.27;5.03;;;;;;;8.88;81.06;101681.84;4998164;28;20243;-53
2022/05/02 05:00:07;;;;;;;9.37;5.13;;;;;;;8.87;80.65;101686.22;4990628;28;20234;-53
2022/05/02 05:02:33;;;;;;;5.47;4.63;;;;;;;8.91;80.82;101693.28;4995886;28;20307;-52
2022/05/02 05:05:01;;;;;;;7.70;5.07;;;;;;;8.95;80.59;101682.03;4999079;28;20245;-52
2022/05/02 05:07:27;;;;;;;5.90;4.80;;;;;;;8.99;80.04;101696.97;4998564;28;20683;-53
2022/05/02 05:09:53;;;;;;;6.00;5.50;;;;;;;9.07;79.19;101691.88;4990177;28;20702;-53
2022/05/02 05:12:33;;;;;;;5.77;4.97;;;;;;;9.14;79.26;101682.41;4990955;28;20253;-52
2022/05/02 05:18:15;;;;;;;9.93;5.63;;;;;;;9.26;78.64;101683.50;4944506;28;20682;-53
2022/05/02 05:20:50;;;;;;;8.03;5.50;;;;;;;9.33;78.62;101680.16;4995286;28;20315;-52
2022/05/02 05:23:26;;;;;;;7.77;5.10;;;;;;;9.42;78.82;101686.47;4989208;28;20233;-53
2022/05/02 05:25:59;;;;;;;11.37;7.03;;;;;;;9.42;77.38;101683.84;4995163;28;20379;-54
2022/05/02 05:28:57;;;;;;;7.10;5.83;;;;;;;9.52;77.78;101686.66;4999182;28;20658;-54
2022/05/02 05:31:32;;;;;;;9.47;5.90;;;;;;;9.63;77.50;101680.72;4987355;28;20732;-52
2022/05/02 05:34:06;;;;;;;9.20;5.80;;;;;;;9.73;76.89;101672.16;4997285;28;20629;-52
2022/05/02 05:36:44;;;;;;;8.60;5.73;;;;;;;9.85;76.13;101674.09;4992446;28;20614;-52
2022/05/02 05:39:12;;;;;;;8.80;6.50;;;;;;;9.92;76.12;101671.63;4990951;28;20712;-53
2022/05/02 05:41:48;;;;;;;7.33;6.53;;;;;;;10.02;75.73;101676.16;4987923;28;20909;-53
2022/05/02 05:44:24;;;;;;;7.60;6.50;;;;;;;10.13;75.05;101664.97;4995803;28;20807;-53
2022/05/02 05:47:02;;;;;;;8.57;5.97;;;;;;;10.23;74.79;101661.63;5001498;28;20241;-53
2022/05/02 05:49:38;;;;;;;13.43;6.57;;;;;;;10.28;73.86;101659.97;4996370;28;20230;-53
2022/05/02 05:52:12;;;;;;;7.53;5.60;;;;;;;10.35;73.53;101653.94;4987675;28;20290;-53
2022/05/02 05:54:41;;;;;;;6.90;6.30;;;;;;;10.45;71.91;101663.72;4993042;28;20233;-53
2022/05/02 05:57:21;;;;;;;7.00;5.03;;;;;;;10.50;72.46;101654.19;4988052;28;20320;-52
2022/05/02 05:59:57;;;;;;;8.20;5.63;;;;;;;10.58;71.89;101653.41;4989872;28;20237;-54
2022/05/02 06:02:24;;;;;;;8.17;5.97;;;;;;;10.69;70.47;101652.69;4992306;28;20871;-52
2022/05/02 06:04:52;;;;;;;7.43;6.03;;;;;;;10.73;69.66;101656.22;5004095;28;20311;-54
2022/05/02 06:07:21;;;;;;;6.00;5.20;;;;;;;10.80;69.62;101655.44;5005574;28;20229;-52
2022/05/02 06:09:49;;;;;;;8.00;5.37;;;;;;;10.84;70.16;101652.00;4993183;28;20711;-54
2022/05/02 06:12:16;;;;;;;6.53;4.73;;;;;;;10.84;68.69;101645.84;4982159;28;20404;-56
2022/05/02 06:20:12;;;;;;;6.90;6.20;;;;;;;11.01;66.66;101664.47;4983102;28;20238;-53
2022/05/02 06:22:40;;;;;;;8.23;5.50;;;;;;;11.04;67.16;101660.13;4988216;28;20729;-53
2022/05/02 06:25:08;;;;;;;15.27;7.27;;;;;;;10.99;65.90;101656.56;4992849;28;20233;-52
2022/05/02 06:27:34;;;;;;;9.00;7.68;;;;;;;11.06;65.45;101665.41;4985389;28;20237;-53
2022/05/02 06:30:02;;;;;;;8.93;6.95;;;;;;;11.13;64.29;101669.88;4999219;28;20288;-53
2022/05/02 06:32:31;;;;;;;10.15;6.55;;;;;;;11.20;64.24;101671.72;5007454;28;20705;-54
2022/05/02 06:34:57;;;;;;;9.33;6.80;;;;;;;11.20;62.52;101675.22;4996341;28;20710;-54
2022/05/02 06:37:37;;;;;;;10.23;6.13;;;;;;;11.27;62.59;101672.63;5000615;28;20658;-54
2022/05/02 06:40:08;;;;;;;7.60;6.80;;;;;;;11.39;61.08;101668.41;4992129;28;20320;-52
2022/05/02 06:42:39;;;;;;;7.65;6.20;;;;;;;11.45;59.71;101673.75;4995332;28;20237;-52
2022/05/02 06:45:16;;;;;;;9.73;6.30;;;;;;;11.44;58.59;101674.63;5004126;28;20239;-53
2022/05/02 06:48:05;;;;;;;10.90;6.25;;;;;;;11.46;58.52;101674.63;4994854;28;22026;-52
2022/05/02 06:50:34;;;;;;;11.18;5.93;;;;;;;11.57;58.67;101661.56;4993093;28;20340;-53
2022/05/02 06:53:11;;;;;;;5.30;4.77;;;;;;;11.67;58.49;101658.16;4995769;28;20233;-52
2022/05/02 06:55:45;;;;;;;5.45;3.90;;;;;;;11.73;58.76;101668.75;4987344;28;20265;-53
2022/05/02 06:58:34;;;;;;;7.13;4.30;;;;;;;11.86;58.40;101667.13;4996858;28;20259;-53
2022/05/02 07:01:04;;;;;;;5.68;3.45;;;;;;;11.98;55.50;101666.38;4989282;28;20766;-54
2022/05/02 07:03:57;;;;;;;5.13;3.22;;;;;;;12.05;54.95;101663.78;4993312;28;20731;-53
2022/05/02 07:06:37;;;;;;;4.95;3.63;;;;;;;12.23;54.97;101670.94;4991655;28;20229;-54
2022/05/02 07:09:05;;;;;;;6.80;4.13;;;;;;;12.29;54.94;101670.13;4992808;28;20229;-53
2022/05/02 07:11:41;;;;;;;5.10;3.50;;;;;;;12.49;56.98;101670.22;5000074;28;20316;-53
2022/05/02 07:14:12;;;;;;;6.32;3.05;;;;;;;12.47;51.97;101670.25;4996352;28;20245;-52
2022/05/02 07:16:42;;;;;;;6.70;2.92;;;;;;;12.61;51.82;101662.41;4997353;28;20269;-53
2022/05/02 07:19:18;;;;;;;4.10;3.05;;;;;;;12.79;50.95;101667.78;5001162;28;20236;-53
2022/05/02 07:21:53;;;;;;;4.07;3.33;;;;;;;12.90;51.96;101660.78;4992178;28;20901;-55
2022/05/02 07:24:35;;;;;;;4.35;3.95;;;;;;;12.96;50.86;101664.34;4994140;28;20326;-52
2022/05/02 07:27:13;;;;;;;5.93;2.70;;;;;;;13.06;53.77;101663.50;5005087;28;20229;-53
2022/05/02 07:29:40;;;;;;;7.80;3.17;;;;;;;13.37;50.43;101667.13;4988422;28;20230;-52
2022/05/02 07:32:08;;;;;;;4.55;3.33;;;;;;;13.43;51.68;101669.78;4986306;28;20876;-52
2022/05/02 07:34:36;;;;;;;3.42;3.13;;;;;;;13.51;51.22;101654.88;4993304;28;20233;-53
2022/05/02 07:37:02;;;;;;;7.65;3.95;;;;;;;13.63;51.26;101663.69;5000485;28;20241;-53
2022/05/02 07:39:29;;;;;;;5.22;3.30;;;;;;;13.65;52.78;101660.13;5000816;28;20743;-53
2022/05/02 07:42:00;;;;;;;6.57;3.53;;;;;;;13.63;51.02;101661.91;4996264;28;20243;-54
2022/05/02 07:44:29;;;;;;;4.93;4.15;;;;;;;13.73;51.74;101666.34;4986172;28;20869;-53
2022/05/02 07:46:58;;;;;;;3.78;3.45;;;;;;;14.01;49.97;101653.16;4996336;28;20467;-52
2022/05/02 07:49:24;;;;;;;3.47;3.03;;;;;;;14.04;52.45;101656.66;5001544;28;20734;-53
2022/05/02 07:51:52;;;;;;;3.45;3.15;;;;;;;14.21;50.40;101653.09;4996283;28;20312;-52
2022/05/02 07:54:20;;;;;;;6.40;3.22;;;;;;;14.36;50.17;101662.78;4996916;28;20700;-54
2022/05/02 07:56:48;;;;;;;5.78;3.33;;;;;;;14.49;50.13;101659.22;4998717;28;20722;-52
2022/05/02 07:59:16;;;;;;;4.15;2.97;;;;;;;14.67;49.03;101664.53;4998278;28;20329;-54
2022/05/02 08:01:45;;;;;;;3.30;2.80;;;;;;;14.69;49.62;101657.44;4998631;28;20737;-53
2022/05/02 08:04:13;;;;;;;8.02;3.63;;;;;;;14.67;49.00;101651.31;4997044;28;20285;-52
2022/05/02 08:06:55;;;;;;;4.38;3.03;;;;;;;14.88;49.39;101654.72;4995691;28;20312;-52
2022/05/02 08:09:41;;;;;;;5.80;4.00;;;;;;;14.66;48.22;101646.00;4969812;28;20424;-51
2022/05/02 08:12:16;;;;;;;8.75;4.07;;;;;;;14.76;48.53;101651.25;4987417;28;20480;-53
2022/05/02 08:14:48;;;;;;;4.25;3.10;;;;;;;14.95;49.17;101656.47;4998526;28;20244;-51
2022/05/02 08:17:23;;;;;;;3.88;3.45;;;;;;;15.07;48.51;101656.41;4988195;28;20298;-53
2022/05/02 08:19:56;;;;;;;3.50;3.03;;;;;;;15.30;48.42;101655.41;5002717;28;20228;-52
2022/05/02 08:28:03;;;;;;;6.43;4.10;;;;;;;15.47;47.74;101641.19;4984516;28;20268;-52
2022/05/02 08:30:34;;;;;;;3.97;3.22;;;;;;;15.74;47.88;101642.78;4984703;28;20234;-52
2022/05/02 08:33:04;;;;;;;5.45;3.53;;;;;;;15.99;48.02;101643.47;4992119;28;20229;-52
2022/05/02 08:35:44;;;;;;;6.03;3.58;;;;;;;16.25;46.37;101647.66;4988261;28;20244;-53
2022/05/02 08:38:18;;;;;;;4.10;3.22;;;;;;;16.43;46.23;101651.91;4999402;28;20463;-52
2022/05/02 08:41:26;;;;;;;4.90;3.45;;;;;;;16.56;45.96;101650.84;4984437;28;20625;-51
2022/05/02 08:44:12;;;;;;;3.83;3.05;;;;;;;16.61;45.99;101649.03;4944733;28;20352;-51
2022/05/02 08:47:08;;;;;;;5.20;3.50;;;;;;;17.01;43.56;101645.06;4995967;28;20328;-52
2022/05/02 08:50:19;;;;;;;9.00;3.28;;;;;;;17.07;43.99;101643.19;4990306;28;20257;-53
2022/05/02 08:53:08;;;;;;;5.05;3.10;;;;;;;17.15;44.05;101632.47;4984810;28;20233;-52
2022/05/02 08:55:40;;;;;;;4.53;3.25;;;;;;;17.32;43.10;101637.56;4999542;28;20237;-54
2022/05/02 08:58:26;;;;;;;4.57;3.72;;;;;;;17.61;42.29;101623.81;4993497;28;20510;-52
2022/05/02 09:01:05;;;;;;;3.10;2.85;;;;;;;17.29;42.52;101621.66;4999225;28;20311;-52
2022/05/02 09:03:54;;;;;;;3.88;2.97;;;;;;;17.42;42.19;101620.59;4997802;28;20324;-52
2022/05/02 09:06:49;;;;;;;12.65;3.83;;;;;;;17.44;42.09;101631.16;4975299;28;20696;-53
2022/05/02 09:09:48;;;;;;;4.30;2.83;;;;;;;17.52;42.74;101618.69;4963444;28;20238;-54
2022/05/02 09:12:43;;;;;;;7.55;3.53;;;;;;;17.60;42.03;101624.75;4963455;28;20628;-53
2022/05/02 09:15:18;;;;;;;5.38;3.47;;;;;;;17.50;42.05;101621.34;4994497;28;20493;-52
2022/05/02 09:18:28;;;;;;;9.77;5.90;;;;;;;17.75;41.71;101612.97;4994613;28;20303;-52
2022/05/02 09:20:58;;;;;;;6.05;3.10;;;;;;;17.69;43.31;101618.38;4984882;28;20236;-53
2022/05/02 09:23:53;;;;;;;3.90;3.13;;;;;;;17.81;42.44;101604.94;4986121;28;20248;-52
2022/05/02 09:26:56;;;;;;;6.35;3.20;;;;;;;17.92;41.12;101613.59;4979259;28;20242;-52
2022/05/02 09:29:56;;;;;;;5.13;3.55;;;;;;;18.19;40.67;101606.94;4988708;28;20230;-52
2022/05/02 09:32:38;;;;;;;2.97;2.78;;;;;;;18.39;40.96;101601.22;4987783;28;20225;-53
2022/05/02 09:35:05;;;;;;;4.95;3.67;;;;;;;18.33;39.96;101598.69;5003233;28;20431;-53
2022/05/02 09:37:38;;;;;;;4.13;3.05;;;;;;;18.56;40.06;101591.13;4995561;28;20242;-51
2022/05/02 09:40:09;;;;;;;4.20;3.70;;;;;;;18.88;38.50;101591.38;4980602;28;20234;-52
2022/05/02 09:42:46;;;;;;;2.83;2.60;;;;;;;18.80;39.32;101594.22;5002244;28;20241;-51
2022/05/02 09:51:33;;;;;;;5.93;3.17;;;;;;;18.96;39.29;101585.00;4986312;28;20236;-51
2022/05/02 09:54:05;;;;;;;5.18;3.15;;;;;;;19.08;38.81;101579.38;5002543;28;20217;-52
2022/05/02 09:56:39;;;;;;;3.65;3.22;;;;;;;19.13;38.77;101573.97;5001313;28;20629;-50
2022/05/02 09:59:10;;;;;;;5.70;3.67;;;;;;;19.39;37.72;101576.00;4977056;28;20466;-51
2022/05/02 10:01:41;;;;;;;6.45;3.10;;;;;;;19.32;38.04;101579.75;4989630;28;20624;-53
2022/05/02 10:04:30;;;;;;;2.83;2.53;;;;;;;19.27;37.93;101568.34;4992824;28;20574;-52
2022/05/02 10:06:59;;;;;;;4.10;3.70;;;;;;;19.31;37.36;101572.66;4998775;28;20248;-52
2022/05/02 10:09:45;;;;;;;3.65;3.35;;;;;;;19.17;38.20;101573.00;4985775;28;20390;-52
2022/05/02 10:12:18;;;;;;;3.50;3.20;;;;;;;19.07;37.92;101571.44;4982095;28;20260;-51
2022/05/02 10:14:57;;;;;;;4.88;3.70;;;;;;;18.93;38.57;101568.22;4991945;28;20876;-52
2022/05/02 10:17:45;;;;;;;3.90;3.60;;;;;;;18.58;39.19;101561.84;4980796;28;20233;-52
2022/05/02 10:20:16;;;;;;;4.68;3.17;;;;;;;19.17;38.18;101561.47;4994664;28;20229;-51
2022/05/02 10:22:54;;;;;;;8.40;3.42;;;;;;;19.21;39.23;101555.16;4987839;28;20655;-51
2022/05/02 10:25:23;;;;;;;6.30;3.80;;;;;;;19.61;37.12;101540.84;4985022;28;20967;-51
2022/05/02 10:28:13;;;;;;;5.05;3.58;;;;;;;19.73;36.93;101551.25;4983307;28;20694;-52
2022/05/02 10:30:51;;;;;;;5.25;3.75;;;;;;;19.64;36.92;101541.69;4982100;28;20257;-53
2022/05/02 10:33:35;;;;;;;3.70;3.40;;;;;;;19.52;36.80;101536.66;4985949;28;20278;-51
2022/05/02 10:36:04;;;;;;;8.13;4.13;;;;;;;19.50;37.27;101536.66;4983303;28;20226;-52
2022/05/02 10:38:31;;;;;;;4.05;3.17;;;;;;;19.72;36.22;101541.47;5003376;28;20257;-52
2022/05/02 10:41:08;;;;;;;5.95;3.78;;;;;;;19.58;36.50;101540.91;4990531;28;20233;-52
2022/05/02 10:43:37;;;;;;;6.20;3.78;;;;;;;19.81;35.90;101527.91;4996292;28;20618;-52
2022/05/02 10:46:04;;;;;;;5.15;4.20;;;;;;;19.76;36.15;101529.81;4976470;28;20232;-52
2022/05/02 10:48:36;;;;;;;4.28;3.92;;;;;;;19.94;35.77;101531.13;4998986;28;20539;-52
2022/05/02 10:51:06;;;;;;;11.93;3.78;;;;;;;20.09;35.25;101525.38;4999096;28;20236;-54
2022/05/02 10:53:55;;;;;;;4.88;3.85;;;;;;;20.11;35.54;101520.88;5002796;28;20225;-52
2022/05/02 10:56:24;;;;;;;6.13;4.05;;;;;;;20.28;35.30;101517.72;4997108;28;20343;-52
2022/05/02 10:58:53;;;;;;;4.38;3.47;;;;;;;20.46;35.33;101522.53;4989990;28;20316;-52
2022/05/02 11:01:33;;;;;;;4.68;3.80;;;;;;;20.46;35.33;101522.53;4988872;28;20304;-53
2022/05/02 11:04:07;;;;;;;5.22;4.10;;;;;;;21.26;34.50;101506.72;4998199;28;20436;-52
2022/05/02 11:06:45;;;;;;;4.93;3.90;;;;;;;21.47;33.35;101504.28;5002661;28;20283;-52
2022/05/02 11:09:14;;;;;;;3.88;3.58;;;;;;;21.47;33.61;101504.28;4978010;28;20230;-51
2022/05/02 11:11:46;;;;;;;4.60;3.30;;;;;;;21.49;34.42;101502.44;4990491;28;20230;-53
2022/05/02 11:14:23;;;;;;;5.07;4.18;;;;;;;21.80;32.69;101495.09;4997209;28;20240;-52
2022/05/02 11:16:54;;;;;;;4.97;3.10;;;;;;;21.44;33.09;101494.56;4986158;28;20230;-52
2022/05/02 11:22:24;;;;;;;8.07;4.55;;;;;;;21.56;33.80;101495.97;4997979;28;20294;-51
2022/05/02 11:24:57;;;;;;;3.40;3.10;;;;;;;21.76;33.94;101490.81;5002548;28;20234;-51
2022/05/02 11:27:48;;;;;;;5.07;4.47;;;;;;;20.85;33.53;101490.25;4996004;28;20225;-51
2022/05/02 11:30:18;;;;;;;6.60;4.03;;;;;;;21.70;32.86;101477.66;4997545;28;21126;-53
2022/05/02 11:33:08;;;;;;;3.80;3.53;;;;;;;21.90;34.37;101484.94;5001292;28;20245;-52
2022/05/02 11:35:35;;;;;;;5.60;3.92;;;;;;;21.10;33.99;101476.13;4985248;28;20832;-53
2022/05/02 11:38:11;;;;;;;5.68;4.20;;;;;;;21.79;32.58;101471.09;4995174;28;20312;-52
2022/05/02 11:40:43;;;;;;;8.07;4.82;;;;;;;21.96;32.33;101462.47;4994681;28;20260;-54
2022/05/02 11:43:11;;;;;;;4.45;4.05;;;;;;;22.33;32.18;101468.22;4990119;28;20664;-51
2022/05/02 11:45:43;;;;;;;5.13;4.50;;;;;;;22.73;31.14;101463.09;4984297;28;20258;-53
2022/05/02 11:48:37;;;;;;;5.97;3.17;;;;;;;22.41;32.15;101464.38;4983048;28;20312;-52
2022/05/02 11:51:05;;;;;;;4.10;3.70;;;;;;;22.18;31.87;101471.44;4993725;28;20307;-51
2022/05/02 11:53:35;;;;;;;7.22;3.92;;;;;;;21.63;33.04;101454.75;4992050;28;20225;-51
2022/05/02 11:56:03;;;;;;;3.97;3.67;;;;;;;20.69;33.97;101456.94;4992700;28;20280;-51
2022/05/02 11:58:36;;;;;;;5.88;3.75;;;;;;;19.87;35.41;101455.81;4987716;28;20245;-53
2022/05/02 12:01:06;;;;;;;4.50;3.47;;;;;;;19.45;36.58;101449.81;4990362;28;20257;-51
2022/05/02 12:03:50;;;;;;;3.20;2.80;;;;;;;19.24;37.13;101451.25;4994673;28;20233;-52
2022/05/02 12:06:17;;;;;;;8.85;4.38;;;;;;;19.39;37.71;101442.84;4990285;28;20326;-51
2022/05/02 12:08:46;;;;;;;3.88;3.47;;;;;;;20.51;35.37;101449.53;4984545;28;20431;-53
2022/05/02 12:11:13;;;;;;;4.35;3.75;;;;;;;21.62;33.86;101448.53;5007497;28;20304;-51
2022/05/02 12:13:44;;;;;;;3.90;3.50;;;;;;;22.51;31.79;101439.00;4998403;28;20241;-53